METAR Data
IDs: Format: Raw Decoded Include TAF

Data at: 1646 UTC 03 Dec 2021

KEUG 031554Z 36006KT 10SM OVC023 05/02 A3024 RMK AO2 SLP243 T00500017
KEUG 031454Z 35004KT 10SM OVC026 05/02 A3026 RMK AO2 SLP249 T00500022 55001
KEUG 031354Z 35008KT 10SM OVC026 05/02 A3025 RMK AO2 SLP247 T00500022
KEUG 031254Z AUTO 35009KT 10SM OVC026 06/02 A3026 RMK AO2 SLP249 T00560022
KEUG 031154Z AUTO 35007KT 10SM OVC022 06/03 A3026 RMK AO2 SLP249 T00560028 10056 20039 56011
KEUG 031054Z AUTO 36006KT 10SM OVC024 05/03 A3028 RMK AO2 SLP255 T00500028
KEUG 030954Z AUTO 34006KT 10SM OVC028 04/02 A3028 RMK AO2 SLP253 T00390022
KEUG 030911Z AUTO 36010KT 10SM BKN028 05/03 A3029 RMK AO2 T00500028
KEUG 030854Z AUTO 35010KT 10SM CLR 04/02 A3030 RMK AO2 SLP260 T00440022 53001
KEUG 030754Z AUTO 36009KT 10SM FEW029 05/03 A3029 RMK AO2 SLP259 T00500033 401330039
KEUG 030752Z AUTO 36008KT 10SM SCT029 05/03 A3029 RMK AO2
KEUG 030717Z 35011KT 10SM BKN029 05/03 A3030 RMK AO2 T00500033
KEUG 030654Z 35011KT 10SM CLR 04/03 A3029 RMK AO2 SLP260 T00440028
KEUG 030554Z 01008KT 10SM CLR 05/03 A3029 RMK AO2 SLP259 T00500033 10117 20044 50003
KEUG 030454Z 35009KT 10SM FEW250 04/03 A3029 RMK AO2 SLP259 T00440033
KEUG 030354Z 35008KT 10SM FEW250 06/04 A3029 RMK AO2 SLP260 T00560039
KEUG 030254Z 36008KT 10SM SCT250 07/04 A3028 RMK AO2 SLP256 T00720044 53001
KEUG 030154Z 36007KT 10SM FEW020 FEW030 BKN250 08/06 A3028 RMK AO2 SLP254 T00780056
KEUG 030054Z 35007KT 10SM SCT020 SCT030 BKN250 08/06 A3028 RMK AO2 SLP256 T00830061
KEUG 022354Z 02006KT 10SM FEW018 SCT031 BKN250 12/08 A3028 RMK AO2 SLP254 T01170078 10133 20089 56005
KEUG 022254Z 02007KT 10SM FEW025 BKN031 BKN250 13/08 A3028 RMK AO2 SLP255 T01280083
KEUG 022222Z 01009KT 10SM FEW023 BKN033 13/08 A3028 RMK AO2 T01280083
KEUG 022154Z 36009KT 10SM BKN020 12/08 A3028 RMK AO2 SLP256 T01220083
KEUG 022054Z 35008KT 10SM FEW009 OVC016 12/09 A3029 RMK AO2 SLP258 T01220094 58010
KEUG 022037Z 36006KT 10SM FEW008 OVC015 12/09 A3029 RMK AO2 T01170094
KEUG 021954Z 32003KT 10SM OVC006 11/09 A3030 RMK AO2 SLP261 T01110094
KEUG 021854Z 00000KT 8SM BKN006 OVC011 10/09 A3032 RMK AO2 SLP268 T01000094
KEUG 021825Z 00000KT 4SM BR OVC007 09/09 A3033 RMK AO2 T00940089
KEUG 021756Z 00000KT 2 1/2SM BR BKN009 OVC012 09/09 A3032 RMK AO2 T00890089
KEUG 021754Z 00000KT 6SM BR SCT009 OVC012 09/09 A3032 RMK AO2 SLP269 VIS NW 2 T00940089 10094 20056 53021
KEUG 021745Z 00000KT 8SM OVC012 09/09 A3032 RMK AO2 T00890089
KEUG 021654Z 23003KT 10SM FEW010 OVC015 08/08 A3030 RMK AO2 SLP261 T00830078
KEUG 021614Z 11003KT 6SM BR FEW002 OVC015 08/07 A3029 RMK AO2 T00780072
KEUG 021554Z 11003KT 3/4SM R16R/3000V5000FT BR SCT002 BKN015 07/07 A3028 RMK AO2 SLP255 VIS SW-W 8 T00720067
KEUG 021529Z 00000KT 1/4SM R16R/P6000FT FG BKN002 BKN017 06/06 A3027 RMK AO2 TWR VIS 1/2 VIS W 4 T00610056
KEUG 021514Z 27003KT 1/2SM R16R/P6000FT FG BKN002 BKN040 06/06 A3027 RMK AO2 T00610056
KEUG 021454Z 26004KT 10SM FEW040 06/06 A3026 RMK AO2 SLP247 T00610056 51009
KEUG 021358Z 19006KT 3SM R16R/5500VP6000FT BR SCT025 07/07 A3025 RMK AO2 TWR VIS 10 T00720067
KEUG 021354Z 19005KT 1SM R16R/P6000FT BR SCT001 BKN025 07/07 A3025 RMK AO2 TWR VIS 10 SLP244 FG SCT001 T00720067
KEUG 021346Z 19005KT 1/2SM R16R/P6000FT FG BKN001 BKN025 07/07 A3025 RMK AO2 FG BKN001 T00670067
KEUG 021342Z AUTO 18004KT 4SM BR FEW001 BKN041 07/07 A3025 RMK AO2 VIS 1/4 RNW 34 CIG 001 RNW 34 T00720067
KEUG 021337Z AUTO 00000KT 1 1/2SM BR FEW001 FEW024 BKN041 07/06 A3025 RMK AO2 VIS 1/4 RNW 34 CIG 001 RNW 34 T00670061
KEUG 021314Z AUTO 00000KT 1/2SM R16R/2400VP6000FT FG FEW001 FEW025 07/06 A3026 RMK AO2 T00670061
KEUG 021311Z AUTO 00000KT 1SM R16R/3000VP6000FT BR VV001 07/07 A3026 RMK AO2 T00720067
KEUG 021307Z AUTO 00000KT 1 3/4SM BR FEW020 07/07 A3025 RMK AO2 VIS 3/4V5 T00720072
KEUG 021303Z AUTO 00000KT 3SM BR FEW020 08/07 A3025 RMK AO2 T00780072
KEUG 021254Z AUTO 00000KT 1 3/4SM BR SCT020 07/07 A3025 RMK AO2 SLP244 T00720067
KEUG 021249Z AUTO 00000KT 2 1/2SM BR SCT020 08/08 A3025 RMK AO2 VIS 1 1/4V5
KEUG 021245Z AUTO 00000KT 3SM BR BKN020 08/08 A3025 RMK AO2 T00780078
KEUG 021236Z AUTO 00000KT 1 1/2SM BR BKN020 BKN027 08/08 A3025 RMK AO2 T00830078
KEUG 021218Z AUTO 00000KT 2SM R16R/3000VP6000FT BR SCT001 BKN022 BKN027 09/08 A3024 RMK AO2 T00890078
KEUG 021213Z AUTO 25003KT 1SM R16R/3000VP6000FT BR SCT001 OVC025 08/08 A3023 RMK AO2 T00830078
KEUG 021211Z AUTO 27003KT 3/4SM R16R/3000VP6000FT BR BKN001 OVC025 08/08 A3023 RMK AO2 T00830078
KEUG 021154Z AUTO 26004KT 1SM R16R/3500VP6000FT BR BKN001 BKN024 09/08 A3023 RMK AO2 SLP237 T00890078 10100 20072 51006
KEUG 021148Z AUTO 26003KT 1 1/4SM R16R/3500VP6000FT BR BKN001 BKN024 08/08 A3023 RMK AO2
KEUG 021144Z AUTO 26004KT 2 1/2SM R16R/3500VP6000FT BR BKN001 BKN016 08/08 A3023 RMK AO2 T00830078
KEUG 021131Z AUTO 25004KT 10SM SCT001 SCT009 BKN016 09/08 A3023 RMK AO2 T00890078
KEUG 021054Z AUTO 25005KT 10SM FEW016 OVC025 10/09 A3023 RMK AO2 SLP236 T01000089
KEUG 021040Z AUTO 00000KT 6SM BR SCT016 OVC021 10/09 A3023 RMK AO2 CIG 015 RNW 34 T01000094
KEUG 020954Z AUTO 00000KT 10SM BKN012 OVC017 09/09 A3023 RMK AO2 VIS 2 RNW 34 SLP236 T00940089
KEUG 020946Z AUTO 07003KT 3SM R16R/5000VP6000FT BR SCT010 OVC017 09/09 A3023 RMK AO2 T00940089
KEUG 020942Z AUTO 06003KT 1 1/2SM R16R/5000VP6000FT BR FEW010 OVC017 09/09 A3022 RMK AO2 T00940089
KEUG 020920Z AUTO 00000KT 3/4SM R16R/3500V5500FT BR FEW001 FEW007 OVC016 09/09 A3022 RMK AO2 T00940089
KEUG 020910Z AUTO 00000KT 1/2SM R16R/3000V6000FT FG FEW001 BKN006 OVC014 09/08 A3022 RMK AO2 T00890083
KEUG 020901Z AUTO 30003KT 1/4SM R16R/2400V3500FT FG BKN005 OVC012 09/08 A3021 RMK AO2 T00890083
KEUG 020854Z AUTO 00000KT 1/4SM R16R/2400V3000FT FG BKN002 BKN007 OVC012 09/08 A3021 RMK AO2 SLP231 T00890083 53008
KEUG 020845Z AUTO 00000KT 1/2SM R16R/1800V2600FT FG BKN002 OVC007 09/09 A3021 RMK AO2 T00890089
KEUG 020842Z AUTO 00000KT 1/4SM R16R/1800V2200FT FG VV002 08/08 A3021 RMK AO2 T00830083
KEUG 020816Z AUTO 05004KT 1/2SM R16R/2200V3000FT FG VV002 08/07 A3021 RMK AO2 T00830072
KEUG 020805Z AUTO 02005KT 1/2SM R16R/1800V5000FT FG VV001 08/07 A3021 RMK AO2 T00780067
KEUG 020754Z AUTO 32003KT 1SM R16R/1800V4000FT BR VV001 07/07 A3021 RMK AO2 SLP229 T00720072 401890067
KEUG 020747Z AUTO 31003KT 3/4SM R16R/2000V4000FT BR BKN001 BKN075 07/07 A3020 RMK AO2 T00720072
KEUG 020738Z AUTO 30003KT 1 1/4SM R16R/2000VP6000FT BR BKN001 BKN075 08/07 A3020 RMK AO2 T00780072
KEUG 020731Z AUTO 24003KT 1 3/4SM R16R/3000VP6000FT BR FEW001 BKN075 08/08 A3020 RMK AO2 VIS 1V5 T00830078
KEUG 020714Z 18005KT 3SM R16R/6000VP6000FT BR BCFG SCT001 OVC075 09/08 A3019 RMK AO2 FG SCT001 T00940083
KEUG 020654Z 17003KT 1SM R16R/1200V4000FT BR BCFG BKN001 08/07 A3019 RMK AO2 SLP224 FG BKN001 T00780072
KEUG 020623Z 00000KT 1 1/2SM R16R/2200VP6000FT BR BCFG BKN001 08/08 A3019 RMK AO2 FG BKN001 T00830078
KEUG 020619Z COR 00000KT 1 1/2SM R16R/2400VP6000FT BR BCFG BKN001 09/08 A3019 RMK AO2 FG BKN001 VIS 3/4 RNW 34 T00890083
KEUG 020554Z 16003KT 10SM OVC080 10/09 A3019 RMK AO2 SLP224 T01000089 10178 20083 51009
KEUG 020454Z 00000KT 10SM R16R/6000VP6000FT BKN075 09/08 A3018 RMK AO2 SLP222 T00890078